createdAt,value
2017-07-27T00:02:27.047Z,10.07
2017-07-27T00:04:55.298Z,10.37
2017-07-27T00:07:23.951Z,10.00
2017-07-27T00:09:52.223Z,10.07
2017-07-27T00:12:20.700Z,10.90
2017-07-27T00:14:49.006Z,11.23
2017-07-27T00:17:18.049Z,13.50
2017-07-27T00:19:46.342Z,10.23
2017-07-27T00:22:14.626Z,11.77
2017-07-27T00:24:42.879Z,10.67
2017-07-27T00:27:11.134Z,11.20
2017-07-27T00:29:39.773Z,10.90
2017-07-27T00:32:08.191Z,12.70
2017-07-27T00:34:37.220Z,10.57
2017-07-27T00:37:05.514Z,10.20
2017-07-27T00:39:33.797Z,11.63
2017-07-27T00:42:02.040Z,11.37
2017-07-27T00:44:30.618Z,11.67
2017-07-27T00:46:58.968Z,11.90
2017-07-27T00:49:28.189Z,11.33
2017-07-27T00:51:56.464Z,10.60
2017-07-27T00:54:24.734Z,10.67
2017-07-27T00:56:53.750Z,10.97
2017-07-27T00:59:22.057Z,9.87
2017-07-27T01:01:50.331Z,10.83
2017-07-27T01:04:18.598Z,10.43
2017-07-27T01:06:47.172Z,12.53
2017-07-27T01:09:15.428Z,14.63
2017-07-27T01:11:43.687Z,10.63
2017-07-27T01:14:12.063Z,13.33
2017-07-27T01:16:41.066Z,10.73
2017-07-27T01:19:10.067Z,10.47
2017-07-27T01:21:38.613Z,11.50
2017-07-27T01:24:06.860Z,14.73
2017-07-27T01:26:35.135Z,12.07
2017-07-27T01:29:03.459Z,12.67
2017-07-27T01:31:32.490Z,13.40
2017-07-27T01:34:00.759Z,13.37
2017-07-27T01:36:29.367Z,12.40
2017-07-27T01:38:57.622Z,12.50
2017-07-27T01:41:25.898Z,14.40
2017-07-27T01:43:54.315Z,10.20
2017-07-27T01:46:22.594Z,10.10
2017-07-27T01:48:50.847Z,8.70
2017-07-27T01:51:19.419Z,10.10
2017-07-27T01:53:47.664Z,7.60
2017-07-27T01:56:16.680Z,7.90
2017-07-27T01:58:45.016Z,8.03
2017-07-27T02:01:13.252Z,8.07
2017-07-27T02:03:41.499Z,8.23
2017-07-27T02:06:10.138Z,13.37
2017-07-27T02:08:38.419Z,8.17
2017-07-27T02:11:06.688Z,8.37
2017-07-27T02:13:34.977Z,8.00
2017-07-27T02:16:03.255Z,8.40
2017-07-27T02:21:32.922Z,10.33
2017-07-27T02:24:01.547Z,8.90
2017-07-27T02:26:29.842Z,6.93
2017-07-27T02:28:58.078Z,7.20
2017-07-27T02:31:26.364Z,4.90
2017-07-27T02:33:54.606Z,6.53
2017-07-27T02:36:22.847Z,5.20
2017-07-27T02:38:51.391Z,3.60
2017-07-27T02:41:19.647Z,4.00
2017-07-27T02:43:47.913Z,3.00
2017-07-27T02:46:16.922Z,4.23
2017-07-27T02:48:45.180Z,4.10
2017-07-27T02:51:13.467Z,4.00
2017-07-27T02:53:41.751Z,4.40
2017-07-27T02:56:10.096Z,2.90
2017-07-27T02:58:38.306Z,2.60
2017-07-27T03:01:06.695Z,5.93
2017-07-27T03:03:34.969Z,5.30
2017-07-27T03:06:03.229Z,3.50
2017-07-27T03:08:32.274Z,2.87
2017-07-27T03:11:01.317Z,3.07
2017-07-27T03:13:29.586Z,2.93
2017-07-27T03:15:58.864Z,3.37
2017-07-27T03:18:27.163Z,3.30
2017-07-27T03:20:56.214Z,3.40
2017-07-27T03:23:24.455Z,3.60
2017-07-27T03:25:52.732Z,3.83
2017-07-27T03:28:21.009Z,4.30
2017-07-27T03:30:49.262Z,3.33
2017-07-27T03:33:18.283Z,5.90
2017-07-27T03:35:46.578Z,3.20
2017-07-27T03:38:14.859Z,3.97
2017-07-27T03:40:43.171Z,3.50
2017-07-27T03:43:11.419Z,3.67
2017-07-27T03:45:39.676Z,4.37
2017-07-27T03:48:07.943Z,3.40
2017-07-27T03:50:36.248Z,3.70
2017-07-27T03:53:04.478Z,3.37
2017-07-27T03:55:33.481Z,3.40
2017-07-27T03:58:01.828Z,3.30
2017-07-27T04:00:30.122Z,3.63
2017-07-27T04:02:59.127Z,3.73
2017-07-27T04:05:27.509Z,3.10
2017-07-27T04:07:55.779Z,3.83
2017-07-27T04:10:24.815Z,3.23
2017-07-27T04:12:53.234Z,3.67
2017-07-27T04:15:21.488Z,2.77
2017-07-27T04:17:49.763Z,2.60
2017-07-27T04:20:18.014Z,4.63
2017-07-27T04:22:46.291Z,2.20
2017-07-27T04:25:14.543Z,2.30
2017-07-27T04:27:42.787Z,4.40
2017-07-27T04:30:11.270Z,2.00
2017-07-27T04:32:59.377Z,2.50
2017-07-27T04:35:27.639Z,2.20
2017-07-27T04:37:55.883Z,2.13
2017-07-27T04:40:24.925Z,3.87
2017-07-27T04:42:53.210Z,2.27
2017-07-27T04:45:22.292Z,1.80
2017-07-27T04:47:50.548Z,4.23
2017-07-27T04:50:18.788Z,2.80
2017-07-27T04:52:47.835Z,3.40
2017-07-27T04:55:16.083Z,2.87
2017-07-27T04:57:56.981Z,4.13
2017-07-27T05:00:26.044Z,3.73
2017-07-27T05:02:54.098Z,3.00
2017-07-27T05:05:22.204Z,3.40
2017-07-27T05:07:50.986Z,4.23
2017-07-27T05:10:18.992Z,3.30
2017-07-27T05:12:47.297Z,3.67
2017-07-27T05:15:15.280Z,3.70
2017-07-27T05:17:43.407Z,4.07
2017-07-27T05:20:11.438Z,4.97
2017-07-27T05:22:39.537Z,5.17
2017-07-27T05:25:07.623Z,5.20
2017-07-27T05:27:36.503Z,4.63
2017-07-27T05:30:06.179Z,4.80
2017-07-27T05:32:34.166Z,9.20
2017-07-27T05:35:02.270Z,4.30
2017-07-27T05:37:41.045Z,5.87
2017-07-27T05:40:12.493Z,5.43
2017-07-27T05:42:40.579Z,5.27
2017-07-27T05:45:08.826Z,5.90
2017-07-27T05:47:36.903Z,5.60
2017-07-27T05:50:04.917Z,5.77
2017-07-27T05:52:33.010Z,5.30
2017-07-27T05:55:01.030Z,5.83
2017-07-27T05:57:29.132Z,5.80
2017-07-27T05:59:57.185Z,6.33
2017-07-27T06:02:25.190Z,6.93
2017-07-27T06:04:53.967Z,6.30
2017-07-27T06:07:22.054Z,6.80
2017-07-27T06:09:50.055Z,6.03
2017-07-27T06:12:18.110Z,7.20
2017-07-27T06:14:46.111Z,6.43
2017-07-27T06:17:14.183Z,7.33
2017-07-27T06:19:42.345Z,7.10
2017-07-27T06:22:10.356Z,7.37
2017-07-27T06:24:38.433Z,7.50
2017-07-27T06:27:07.217Z,7.57
2017-07-27T06:29:35.299Z,7.60
2017-07-27T06:32:03.406Z,6.37
2017-07-27T06:34:31.407Z,7.77
2017-07-27T06:36:59.465Z,6.80
2017-07-27T06:39:27.499Z,6.87
2017-07-27T06:41:55.527Z,6.80
2017-07-27T06:44:23.623Z,7.90
2017-07-27T06:46:51.655Z,7.10
2017-07-27T06:49:19.727Z,8.10
2017-07-27T06:51:47.750Z,7.70
2017-07-27T06:54:16.591Z,7.27
2017-07-27T06:56:44.735Z,6.07
2017-07-27T06:59:13.539Z,6.47
2017-07-27T07:01:41.595Z,4.43
2017-07-27T07:04:09.637Z,5.47
2017-07-27T07:06:37.660Z,4.87
2017-07-27T07:09:06.066Z,6.30
2017-07-27T07:11:34.074Z,4.80
2017-07-27T07:14:02.144Z,4.30
2017-07-27T07:16:30.234Z,3.77
2017-07-27T07:18:58.271Z,3.60
2017-07-27T07:21:26.356Z,4.00
2017-07-27T07:23:54.414Z,3.80
2017-07-27T07:26:22.425Z,4.07
2017-07-27T07:28:50.457Z,4.10
2017-07-27T07:31:18.559Z,3.80
2017-07-27T07:33:46.604Z,3.30
2017-07-27T07:36:14.628Z,6.30
2017-07-27T07:38:43.132Z,2.53
2017-07-27T07:41:11.279Z,5.53
2017-07-27T07:46:39.579Z,4.43
2017-07-27T07:49:07.626Z,3.97
2017-07-27T07:51:35.679Z,2.90
2017-07-27T07:54:03.702Z,2.60
2017-07-27T07:56:32.072Z,3.10
2017-07-27T07:59:00.227Z,2.57
2017-07-27T08:01:28.222Z,3.13
2017-07-27T08:03:56.601Z,2.97
2017-07-27T08:06:26.015Z,3.43
2017-07-27T08:09:05.967Z,3.13
2017-07-27T08:11:34.075Z,3.23
2017-07-27T08:14:02.872Z,6.03
2017-07-27T08:16:30.927Z,2.30
2017-07-27T08:18:58.946Z,3.17
2017-07-27T08:21:26.980Z,2.90
2017-07-27T08:23:55.759Z,3.33
2017-07-27T08:26:23.823Z,5.13
2017-07-27T08:28:51.875Z,3.20
2017-07-27T08:31:21.519Z,3.40
2017-07-27T08:33:49.860Z,3.17
2017-07-27T08:36:17.849Z,2.60
2017-07-27T08:38:45.870Z,2.60
2017-07-27T08:41:14.065Z,3.03
2017-07-27T08:43:42.180Z,5.40
2017-07-27T08:46:10.234Z,2.83
2017-07-27T08:48:38.316Z,2.23
2017-07-27T08:51:06.360Z,2.30
2017-07-27T08:53:34.463Z,3.80
2017-07-27T08:56:02.544Z,3.10
2017-07-27T08:58:31.350Z,5.03
2017-07-27T09:00:59.436Z,2.33
2017-07-27T09:03:28.032Z,2.53
2017-07-27T09:05:56.116Z,2.67
2017-07-27T09:08:24.471Z,4.07
2017-07-27T09:10:52.591Z,2.27
2017-07-27T09:13:20.627Z,1.83
2017-07-27T09:16:10.475Z,2.77
2017-07-27T09:18:38.777Z,2.70
2017-07-27T09:21:07.129Z,3.60
2017-07-27T09:23:35.596Z,3.03
2017-07-27T09:26:03.808Z,3.30
2017-07-27T09:28:32.003Z,1.87
2017-07-27T09:31:00.063Z,1.80
2017-07-27T09:33:28.151Z,1.57
2017-07-27T09:35:56.192Z,4.73
2017-07-27T09:38:24.249Z,3.37
2017-07-27T09:40:52.295Z,6.77
2017-07-27T09:43:20.339Z,2.77
2017-07-27T09:45:48.359Z,1.60
2017-07-27T09:48:16.432Z,2.00
2017-07-27T09:50:44.550Z,2.77
2017-07-27T09:53:12.583Z,3.03
2017-07-27T09:55:40.604Z,3.40
2017-07-27T09:58:08.678Z,3.23
2017-07-27T10:00:36.792Z,3.37
2017-07-27T10:03:04.911Z,4.37
2017-07-27T10:26:06.283Z,5.70
2017-07-27T10:28:34.383Z,4.20
2017-07-27T10:31:02.411Z,3.47
2017-07-27T10:33:30.575Z,3.60
2017-07-27T10:35:58.587Z,6.70
2017-07-27T10:38:26.612Z,4.17
2017-07-27T10:40:54.888Z,4.57
2017-07-27T10:43:22.923Z,4.20
2017-07-27T10:45:50.931Z,5.50
2017-07-27T10:48:19.739Z,5.50
2017-07-27T10:50:47.830Z,4.93
2017-07-27T10:53:15.844Z,6.43
2017-07-27T10:55:44.673Z,3.60
2017-07-27T10:58:12.682Z,6.83
2017-07-27T11:00:41.364Z,5.33
2017-07-27T11:03:09.462Z,4.37
2017-07-27T11:05:37.452Z,8.93
2017-07-27T11:08:05.452Z,2.93
2017-07-27T11:10:33.497Z,5.30
2017-07-27T11:13:01.512Z,3.53
2017-07-27T11:15:29.533Z,4.20
2017-07-27T11:17:57.924Z,5.43
2017-07-27T11:20:25.958Z,9.53
2017-07-27T11:22:54.776Z,2.83
2017-07-27T11:25:30.812Z,5.70
2017-07-27T11:27:59.661Z,4.03
2017-07-27T11:30:27.662Z,8.30
2017-07-27T11:32:56.517Z,5.93
2017-07-27T11:35:24.672Z,10.90
2017-07-27T11:37:52.688Z,4.90
2017-07-27T11:40:20.839Z,3.33
2017-07-27T11:42:48.929Z,5.27
2017-07-27T11:45:16.979Z,7.80
2017-07-27T11:47:45.242Z,4.27
2017-07-27T11:50:13.275Z,4.83
2017-07-27T11:52:42.069Z,6.93
2017-07-27T11:55:10.164Z,7.30
2017-07-27T11:57:38.184Z,4.30
2017-07-27T12:00:06.996Z,3.57
2017-07-27T12:02:35.067Z,5.77
2017-07-27T12:05:03.965Z,4.03
2017-07-27T12:07:31.963Z,4.90
2017-07-27T12:10:00.046Z,6.83
2017-07-27T12:12:28.171Z,4.13
2017-07-27T12:14:56.990Z,5.97
2017-07-27T12:17:25.048Z,7.57
2017-07-27T12:19:53.160Z,7.63
2017-07-27T12:22:21.234Z,8.57
2017-07-27T12:24:49.511Z,6.70
2017-07-27T12:27:17.522Z,5.13
2017-07-27T12:29:46.293Z,6.83
2017-07-27T12:32:14.340Z,6.83
2017-07-27T12:34:44.405Z,5.27
2017-07-27T12:37:12.526Z,5.10
2017-07-27T12:39:40.623Z,6.70
2017-07-27T12:42:08.770Z,6.57
2017-07-27T12:44:37.901Z,5.63
2017-07-27T12:47:06.191Z,6.97
2017-07-27T12:49:35.294Z,9.80
2017-07-27T12:52:03.692Z,4.90
2017-07-27T12:57:11.450Z,7.00
2017-07-27T12:59:39.530Z,8.03
2017-07-27T13:02:07.531Z,8.23
2017-07-27T13:04:35.681Z,5.53
2017-07-27T13:07:03.680Z,6.57
2017-07-27T13:12:32.023Z,6.17
2017-07-27T13:15:00.919Z,5.80
2017-07-27T13:17:29.851Z,6.17
2017-07-27T13:19:58.624Z,7.57
2017-07-27T13:22:27.564Z,7.17
2017-07-27T13:24:55.605Z,5.27
2017-07-27T13:27:23.651Z,3.10
2017-07-27T13:29:51.733Z,5.83
2017-07-27T13:32:19.770Z,5.63
2017-07-27T13:34:47.866Z,10.07
2017-07-27T13:37:16.013Z,4.50
2017-07-27T13:39:44.064Z,5.63
2017-07-27T13:42:12.094Z,5.50
2017-07-27T13:44:43.194Z,5.27
2017-07-27T13:47:11.264Z,7.67
2017-07-27T13:49:39.334Z,4.83
2017-07-27T13:52:07.366Z,4.10
2017-07-27T13:54:36.135Z,4.83
2017-07-27T13:57:04.275Z,6.37
2017-07-27T13:59:32.354Z,4.90
2017-07-27T14:02:01.295Z,4.00
2017-07-27T14:04:29.369Z,9.03
2017-07-27T14:06:57.411Z,9.83
2017-07-27T14:09:25.460Z,5.07
2017-07-27T14:11:53.719Z,4.27
2017-07-27T14:14:21.797Z,6.13
2017-07-27T14:16:49.869Z,5.57
2017-07-27T14:19:18.843Z,8.33
2017-07-27T14:21:46.895Z,5.47
2017-07-27T14:24:14.940Z,5.80
2017-07-27T14:26:43.762Z,8.83
2017-07-27T14:29:11.771Z,5.13
2017-07-27T14:31:39.795Z,9.17
2017-07-27T14:34:07.980Z,7.00
2017-07-27T14:36:36.052Z,5.17
2017-07-27T14:39:04.145Z,9.73
2017-07-27T14:41:32.320Z,6.50
2017-07-27T14:44:00.420Z,6.53
2017-07-27T14:46:28.511Z,4.97
2017-07-27T14:48:57.238Z,2.87
2017-07-27T14:51:25.363Z,7.40
2017-07-27T14:53:53.379Z,8.20
2017-07-27T14:56:21.418Z,5.77
2017-07-27T14:58:51.039Z,6.87
2017-07-27T15:01:19.823Z,4.47
2017-07-27T15:03:47.905Z,8.20
2017-07-27T15:06:15.948Z,5.43
2017-07-27T15:08:44.730Z,8.40
2017-07-27T15:11:13.527Z,7.47
2017-07-27T15:13:42.348Z,11.97
2017-07-27T15:16:10.372Z,6.90
2017-07-27T15:18:38.416Z,6.60
2017-07-27T15:21:06.504Z,7.43
2017-07-27T15:23:34.628Z,6.43
2017-07-27T15:26:02.757Z,9.93
2017-07-27T15:28:30.882Z,2.97
2017-07-27T15:30:59.001Z,5.17
2017-07-27T15:33:27.263Z,7.63
2017-07-27T15:35:56.217Z,8.20
2017-07-27T15:38:24.410Z,7.60
2017-07-27T15:40:52.534Z,7.63
2017-07-27T15:43:20.666Z,7.67
2017-07-27T15:45:48.832Z,7.80
2017-07-27T15:48:16.926Z,5.60
2017-07-27T15:50:45.129Z,7.17
2017-07-27T15:53:13.377Z,7.07
2017-07-27T15:55:41.408Z,5.90
2017-07-27T15:58:09.482Z,8.77
2017-07-27T16:00:37.609Z,5.30
2017-07-27T16:03:05.732Z,6.97
2017-07-27T16:05:34.524Z,6.90
2017-07-27T16:08:03.360Z,5.20
2017-07-27T16:10:31.397Z,9.10
2017-07-27T16:12:59.479Z,6.93
2017-07-27T16:15:27.571Z,10.03
2017-07-27T16:17:55.774Z,9.57
2017-07-27T16:20:23.824Z,7.47
2017-07-27T16:22:51.947Z,4.87
2017-07-27T16:25:20.022Z,7.13
2017-07-27T16:27:48.086Z,8.00
2017-07-27T16:30:16.139Z,11.83
2017-07-27T16:32:44.192Z,5.60
2017-07-27T16:35:12.296Z,4.73
2017-07-27T16:37:40.449Z,6.80
2017-07-27T16:40:08.563Z,8.00
2017-07-27T16:42:37.339Z,5.50
2017-07-27T16:45:06.290Z,10.70
2017-07-27T16:47:34.327Z,9.40
2017-07-27T16:50:02.368Z,7.20
2017-07-27T16:52:30.399Z,4.43
2017-07-27T16:54:58.429Z,8.37
2017-07-27T16:57:26.544Z,11.67
2017-07-27T16:59:54.614Z,10.03
2017-07-27T17:02:22.756Z,5.53
2017-07-27T17:04:50.830Z,9.27
2017-07-27T17:07:18.870Z,7.80
2017-07-27T17:09:47.108Z,7.40
2017-07-27T17:12:15.170Z,5.67
2017-07-27T17:14:43.292Z,9.17
2017-07-27T17:17:12.148Z,8.50
2017-07-27T17:19:40.211Z,10.67
2017-07-27T17:22:08.224Z,10.83
2017-07-27T17:24:36.378Z,9.83
2017-07-27T17:27:04.390Z,6.93
2017-07-27T17:29:32.413Z,9.30
2017-07-27T17:32:00.514Z,8.80
2017-07-27T17:34:28.553Z,7.43
2017-07-27T17:36:57.061Z,7.83
2017-07-27T17:39:25.166Z,11.20
2017-07-27T17:41:53.315Z,6.50
2017-07-27T17:44:22.122Z,9.00
2017-07-27T17:46:50.282Z,8.60
2017-07-27T17:49:18.329Z,10.97
2017-07-27T17:51:46.340Z,4.57
2017-07-27T17:54:14.416Z,10.97
2017-07-27T17:56:42.428Z,10.57
2017-07-27T17:59:10.560Z,6.40
2017-07-27T18:01:38.602Z,7.03
2017-07-27T18:04:06.638Z,14.87
2017-07-27T18:06:34.833Z,11.77
2017-07-27T18:09:02.942Z,8.53
2017-07-27T18:11:31.047Z,10.73
2017-07-27T18:13:59.105Z,10.47
2017-07-27T18:16:27.200Z,6.10
2017-07-27T18:18:55.209Z,9.53
2017-07-27T18:21:23.381Z,7.57
2017-07-27T18:23:51.443Z,6.20
2017-07-27T18:26:19.570Z,11.90
2017-07-27T18:28:47.729Z,9.53
2017-07-27T18:31:15.731Z,8.37
2017-07-27T18:33:43.835Z,9.97
2017-07-27T18:36:11.973Z,9.93
2017-07-27T18:38:40.009Z,8.70
2017-07-27T18:41:08.095Z,11.97
2017-07-27T18:43:36.135Z,10.20
2017-07-27T18:46:05.027Z,10.30
2017-07-27T18:48:33.117Z,11.50
2017-07-27T18:51:01.304Z,6.97
2017-07-27T18:53:29.366Z,10.40
2017-07-27T18:55:57.768Z,10.17
2017-07-27T18:58:25.878Z,6.27
2017-07-27T19:00:53.941Z,4.93
2017-07-27T19:03:22.189Z,8.13
2017-07-27T19:05:50.442Z,6.70
2017-07-27T19:08:18.782Z,8.17
2017-07-27T19:10:47.074Z,10.23
2017-07-27T19:13:16.209Z,5.00
2017-07-27T19:15:44.511Z,5.20
2017-07-27T19:18:12.845Z,7.43
2017-07-27T19:20:41.948Z,9.60
2017-07-27T19:23:10.270Z,10.80
2017-07-27T19:25:38.558Z,8.73
2017-07-27T19:28:06.894Z,8.10
2017-07-27T19:30:35.256Z,5.63
2017-07-27T19:33:03.663Z,11.43
2017-07-27T19:35:31.973Z,6.10
2017-07-27T19:38:00.311Z,5.33
2017-07-27T19:40:28.658Z,7.63
2017-07-27T19:42:56.933Z,21.33
2017-07-27T19:45:25.231Z,7.33
2017-07-27T19:47:53.630Z,9.93
2017-07-27T19:50:22.661Z,6.20
2017-07-27T19:52:50.996Z,12.23
2017-07-27T19:55:19.469Z,10.80
2017-07-27T19:57:47.800Z,6.40
2017-07-27T20:00:16.116Z,6.23
2017-07-27T20:02:44.466Z,7.03
2017-07-27T20:05:12.784Z,8.57
2017-07-27T20:07:41.144Z,9.17
2017-07-27T20:13:05.714Z,7.90
2017-07-27T20:15:34.084Z,7.83
2017-07-27T20:18:02.398Z,5.93
2017-07-27T20:20:30.812Z,5.47
2017-07-27T20:22:59.129Z,12.83
2017-07-27T20:25:27.513Z,5.00
2017-07-27T20:27:55.799Z,5.60
2017-07-27T20:30:24.193Z,7.23
2017-07-27T20:32:52.468Z,12.07
2017-07-27T20:35:20.829Z,10.17
2017-07-27T20:37:49.135Z,7.67
2017-07-27T20:40:17.426Z,12.00
2017-07-27T20:42:45.762Z,12.03
2017-07-27T20:45:14.933Z,5.63
2017-07-27T20:47:43.997Z,8.77
2017-07-27T20:50:12.321Z,8.70
2017-07-27T20:52:40.661Z,10.40
2017-07-27T20:55:09.710Z,16.13
2017-07-27T20:57:38.123Z,8.63
2017-07-27T21:00:06.558Z,15.00
2017-07-27T21:02:34.927Z,9.50
2017-07-27T21:05:03.455Z,6.20
2017-07-27T21:07:31.817Z,7.43
2017-07-27T21:10:00.132Z,4.80
2017-07-27T21:12:29.227Z,8.93
2017-07-27T21:14:57.496Z,4.57
2017-07-27T21:17:25.761Z,8.53
2017-07-27T21:19:54.089Z,3.93
2017-07-27T21:22:22.634Z,8.70
2017-07-27T21:24:50.890Z,5.83
2017-07-27T21:27:19.968Z,8.90
2017-07-27T21:29:48.257Z,7.40
2017-07-27T21:32:16.534Z,7.10
2017-07-27T21:34:44.833Z,5.53
2017-07-27T21:37:13.088Z,4.43
2017-07-27T21:39:41.547Z,6.23
2017-07-27T21:42:09.838Z,7.13
2017-07-27T21:44:38.908Z,7.90
2017-07-27T21:47:07.850Z,4.20
2017-07-27T21:49:37.010Z,7.23
2017-07-27T21:52:05.693Z,6.03
2017-07-27T21:54:39.000Z,6.93
2017-07-27T21:57:08.339Z,8.07
2017-07-27T21:59:37.107Z,7.00
2017-07-27T22:02:06.907Z,11.30
2017-07-27T22:04:36.405Z,7.10
2017-07-27T22:07:05.682Z,11.43
2017-07-27T22:09:33.978Z,4.10
2017-07-27T22:12:02.269Z,9.70
2017-07-27T22:14:31.323Z,9.50
2017-07-27T22:16:59.703Z,6.70
2017-07-27T22:19:27.994Z,8.77
2017-07-27T22:21:56.291Z,8.43
2017-07-27T22:24:24.986Z,6.30
2017-07-27T22:26:53.268Z,5.30
2017-07-27T22:29:21.529Z,5.83
2017-07-27T22:31:49.936Z,5.90
2017-07-27T22:34:18.199Z,7.47
2017-07-27T22:36:46.617Z,8.63
2017-07-27T22:39:14.945Z,6.33
2017-07-27T22:41:43.243Z,10.53
2017-07-27T22:44:12.256Z,6.17
2017-07-27T22:46:40.574Z,6.00
2017-07-27T22:49:08.819Z,7.50
2017-07-27T22:51:37.059Z,9.67
2017-07-27T22:54:05.396Z,5.33
2017-07-27T22:56:33.702Z,8.90
2017-07-27T22:59:01.947Z,8.23
2017-07-27T23:01:30.226Z,4.47
2017-07-27T23:03:58.529Z,10.33
2017-07-27T23:06:26.771Z,11.83
2017-07-27T23:08:55.071Z,9.00
2017-07-27T23:11:24.194Z,10.23
2017-07-27T23:13:52.443Z,5.40
2017-07-27T23:16:20.775Z,8.33
2017-07-27T23:18:49.766Z,8.20
2017-07-27T23:21:18.124Z,12.23
2017-07-27T23:23:49.575Z,11.40
2017-07-27T23:26:17.880Z,9.30
2017-07-27T23:28:46.325Z,8.40
2017-07-27T23:31:14.704Z,13.73
2017-07-27T23:33:43.087Z,8.40
2017-07-27T23:36:11.348Z,9.70
2017-07-27T23:38:40.180Z,6.93
2017-07-27T23:41:08.507Z,8.17
2017-07-27T23:43:36.960Z,8.50
2017-07-27T23:46:05.313Z,9.57
2017-07-27T23:48:33.611Z,11.63
2017-07-27T23:51:01.865Z,5.43
2017-07-27T23:56:30.876Z,9.90
2017-07-27T23:58:59.183Z,5.20
